Time;durP1;ratioP1;P1;durP2;ratioP2;P2;SDS_P1;SDS_P2;PMS_P1;PMS_P2;Temp;Humidity;BMP_temperature;BMP_pressure;BME280_temperature;BME280_humidity;BME280_pressure;Samples;Min_cycle;Max_cycle;Signal;HPM_P1;HPM_P2
2022/04/27 00:02:22;;;;;;;17.50;10.50;;;10.40;99.90;;;;;;5072957;28;20381;-84
2022/04/27 00:04:47;;;;;;;18.20;11.73;;;10.40;99.90;;;;;;5072123;28;20045;-84
2022/04/27 00:07:20;;;;;;;15.60;10.80;;;10.40;99.90;;;;;;5064837;28;20479;-84
2022/04/27 00:09:45;;;;;;;16.33;9.85;;;10.30;99.90;;;;;;5074227;28;20033;-84
2022/04/27 00:12:14;;;;;;;16.33;10.63;;;10.30;99.90;;;;;;5072527;28;20385;-84
2022/04/27 00:14:40;;;;;;;15.23;9.57;;;10.20;99.90;;;;;;5071671;28;20033;-84
2022/04/27 00:17:24;;;;;;;13.73;9.00;;;10.20;99.90;;;;;;5072324;28;20040;-85
2022/04/27 00:19:50;;;;;;;12.88;9.35;;;10.20;99.90;;;;;;5053920;28;20032;-84
2022/04/27 00:22:35;;;;;;;13.48;8.70;;;10.10;99.90;;;;;;5072352;28;20024;-84
2022/04/27 00:25:03;;;;;;;12.63;8.10;;;10.10;99.90;;;;;;5054012;28;20040;-85
2022/04/27 00:27:29;;;;;;;12.30;7.78;;;10.10;99.90;;;;;;5072155;28;20028;-84
2022/04/27 00:30:03;;;;;;;13.48;9.38;;;10.00;99.90;;;;;;5072854;28;20027;-85
2022/04/27 00:32:28;;;;;;;16.67;9.32;;;10.00;99.90;;;;;;5054138;28;20051;-84
2022/04/27 00:34:54;;;;;;;12.95;9.07;;;9.90;99.90;;;;;;5054379;28;20067;-84
2022/04/27 00:37:33;;;;;;;15.25;9.85;;;9.90;99.90;;;;;;5072119;28;20021;-84
2022/04/27 00:39:58;;;;;;;14.55;9.60;;;9.80;99.90;;;;;;5072452;28;20094;-84
2022/04/27 00:42:24;;;;;;;16.25;9.60;;;9.70;99.90;;;;;;5053195;28;20021;-84
2022/04/27 00:45:06;;;;;;;15.60;8.98;;;9.70;99.90;;;;;;5055512;28;20404;-84
2022/04/27 00:47:32;;;;;;;11.85;7.70;;;9.70;99.90;;;;;;5072215;28;20024;-84
2022/04/27 00:50:37;;;;;;;14.20;9.73;;;9.60;99.90;;;;;;5071202;28;20046;-84
2022/04/27 00:53:03;;;;;;;23.98;13.60;;;9.60;99.90;;;;;;5079873;28;20064;-84
2022/04/27 00:55:30;;;;;;;25.42;14.15;;;9.60;99.90;;;;;;5052292;28;20056;-84
2022/04/27 00:57:56;;;;;;;35.38;15.98;;;9.70;99.90;;;;;;5063460;28;20055;-84
2022/04/27 01:00:22;;;;;;;32.25;15.95;;;9.70;99.90;;;;;;5079555;28;20090;-84
2022/04/27 01:02:48;;;;;;;27.13;15.40;;;9.70;99.90;;;;;;5085690;28;20451;-84
2022/04/27 01:05:13;;;;;;;24.92;15.27;;;9.80;99.90;;;;;;5092079;28;20051;-84
2022/04/27 01:07:40;;;;;;;28.70;16.33;;;9.70;99.90;;;;;;5096033;28;20020;-84
2022/04/27 01:10:11;;;;;;;27.35;16.63;;;9.60;99.90;;;;;;5096070;28;20024;-84
2022/04/27 01:12:36;;;;;;;25.80;15.98;;;9.60;99.90;;;;;;5096459;28;20054;-84
2022/04/27 01:15:08;;;;;;;23.90;14.95;;;9.50;99.90;;;;;;5096558;28;20484;-83
2022/04/27 01:17:34;;;;;;;25.30;14.77;;;9.50;99.90;;;;;;5095773;28;20035;-84
2022/04/27 01:20:00;;;;;;;24.17;15.07;;;9.40;99.90;;;;;;5095899;28;20376;-83
2022/04/27 01:22:40;;;;;;;28.98;16.00;;;9.40;99.90;;;;;;5094842;28;20354;-83
2022/04/27 01:25:06;;;;;;;22.25;14.68;;;9.30;99.90;;;;;;5075605;28;20021;-83
2022/04/27 01:27:54;;;;;;;32.05;18.95;;;9.20;99.90;;;;;;5078021;28;20437;-83
2022/04/27 01:30:26;;;;;;;30.83;16.25;;;9.10;99.90;;;;;;5094094;28;20468;-84
2022/04/27 01:32:51;;;;;;;27.75;16.50;;;9.10;99.90;;;;;;5096058;28;20030;-84
2022/04/27 01:35:17;;;;;;;29.00;16.65;;;9.00;99.90;;;;;;5095266;28;20106;-84
2022/04/27 01:38:00;;;;;;;25.90;16.40;;;8.90;99.90;;;;;;5095718;28;20115;-84
2022/04/27 01:40:26;;;;;;;27.17;16.27;;;8.90;99.90;;;;;;5095080;28;20113;-84
2022/04/27 01:42:52;;;;;;;30.25;16.42;;;8.80;99.90;;;;;;5094680;28;20093;-83
2022/04/27 01:45:17;;;;;;;27.10;16.02;;;8.70;99.90;;;;;;5095702;28;20435;-84
2022/04/27 01:47:43;;;;;;;27.23;15.30;;;8.70;99.90;;;;;;5095228;28;20082;-84
2022/04/27 01:50:15;;;;;;;31.90;16.13;;;8.60;99.90;;;;;;5094942;28;20032;-84
2022/04/27 01:55:24;;;;;;;26.08;17.00;;;8.40;99.90;;;;;;5095796;28;20090;-84
2022/04/27 01:57:54;;;;;;;23.77;15.70;;;8.30;99.90;;;;;;5075743;28;20016;-84
2022/04/27 02:00:21;;;;;;;25.98;15.98;;;8.20;99.90;;;;;;5093187;28;20038;-84
2022/04/27 02:02:47;;;;;;;24.70;15.32;;;8.10;99.90;;;;;;5075154;28;20017;-84
2022/04/27 02:05:13;;;;;;;29.95;16.60;;;8.00;99.90;;;;;;5087184;28;20396;-84
2022/04/27 02:07:43;;;;;;;26.15;17.20;;;8.00;99.90;;;;;;5095687;28;20028;-84
2022/04/27 02:10:09;;;;;;;24.15;15.70;;;7.90;99.90;;;;;;5076444;28;20032;-84
2022/04/27 02:12:35;;;;;;;23.48;15.73;;;7.90;99.90;;;;;;5093743;28;20028;-84
2022/04/27 02:15:02;;;;;;;34.60;17.23;;;7.90;99.90;;;;;;5091500;28;20027;-83
2022/04/27 02:17:27;;;;;;;23.80;15.48;;;7.80;99.90;;;;;;5074875;28;20020;-84
2022/04/27 02:20:13;;;;;;;19.58;13.82;;;7.80;99.90;;;;;;5083002;28;20383;-84
2022/04/27 02:22:40;;;;;;;21.02;14.43;;;7.70;99.90;;;;;;5094545;28;20035;-84
2022/04/27 02:25:33;;;;;;;25.85;16.75;;;7.60;99.90;;;;;;5094285;28;20031;-84
2022/04/27 02:27:59;;;;;;;21.27;14.95;;;7.60;99.90;;;;;;5094706;28;20024;-83
2022/04/27 02:30:27;;;;;;;29.92;16.85;;;7.60;99.90;;;;;;5092733;28;20085;-83
2022/04/27 02:32:53;;;;;;;26.77;16.08;;;7.50;99.90;;;;;;5075633;28;20028;-85
2022/04/27 02:35:19;;;;;;;23.83;16.23;;;7.50;99.90;;;;;;5093779;28;20027;-84
2022/04/27 02:37:45;;;;;;;26.30;17.63;;;7.40;99.90;;;;;;5076540;28;20115;-84
2022/04/27 02:40:12;;;;;;;27.15;16.52;;;7.30;99.90;;;;;;5093182;28;20214;-84
2022/04/27 02:42:38;;;;;;;23.92;14.85;;;7.30;99.90;;;;;;5094521;28;20024;-84
2022/04/27 02:45:20;;;;;;;28.38;16.42;;;7.30;99.90;;;;;;5094009;28;20495;-83
2022/04/27 02:47:45;;;;;;;29.75;18.42;;;7.20;99.90;;;;;;5093710;28;20476;-83
2022/04/27 02:53:15;;;;;;;21.02;14.85;;;7.20;99.90;;;;;;5075113;28;20093;-83
2022/04/27 02:55:41;;;;;;;23.58;14.80;;;7.10;99.90;;;;;;5072923;28;20028;-83
2022/04/27 02:58:10;;;;;;;28.48;17.48;;;7.10;99.90;;;;;;5084703;28;20039;-84
2022/04/27 03:00:36;;;;;;;22.60;15.25;;;7.00;99.90;;;;;;5075588;28;20028;-83
2022/04/27 03:03:03;;;;;;;24.17;16.77;;;7.00;99.90;;;;;;5093507;28;20122;-83
2022/04/27 03:05:29;;;;;;;24.25;15.35;;;6.90;99.90;;;;;;5093754;28;20373;-83
2022/04/27 03:07:56;;;;;;;23.58;16.45;;;6.90;99.90;;;;;;5075847;28;20161;-83
2022/04/27 03:10:22;;;;;;;24.35;15.77;;;6.90;99.90;;;;;;5093101;28;20020;-83
2022/04/27 03:12:53;;;;;;;29.90;17.15;;;6.90;99.90;;;;;;5093950;28;20376;-83
2022/04/27 03:15:19;;;;;;;24.42;14.68;;;6.90;99.90;;;;;;5093683;28;20031;-83
2022/04/27 03:18:17;;;;;;;22.98;15.07;;;6.90;99.90;;;;;;5092851;28;20024;-83
2022/04/27 03:20:43;;;;;;;23.90;16.23;;;6.80;99.90;;;;;;5092869;28;20049;-83
2022/04/27 03:23:17;;;;;;;24.88;15.77;;;6.80;99.90;;;;;;5092854;28;20104;-83
2022/04/27 03:25:43;;;;;;;22.73;16.42;;;6.80;99.90;;;;;;5072052;28;20574;-83
2022/04/27 03:28:09;;;;;;;22.55;15.00;;;6.80;99.90;;;;;;5090430;28;20024;-83
2022/04/27 03:30:48;;;;;;;38.58;16.65;;;6.70;99.90;;;;;;5089160;28;20028;-83
2022/04/27 03:33:13;;;;;;;21.77;15.60;;;6.70;99.90;;;;;;5090627;28;20024;-83
2022/04/27 03:35:48;;;;;;;27.00;16.45;;;6.70;99.90;;;;;;5091939;28;20034;-83
2022/04/27 03:38:18;;;;;;;28.03;17.20;;;6.70;99.90;;;;;;5093659;28;20487;-83
2022/04/27 03:40:52;;;;;;;28.40;18.13;;;6.60;99.90;;;;;;5092972;28;20032;-83
2022/04/27 03:43:17;;;;;;;27.60;16.73;;;6.60;99.90;;;;;;5055350;28;20373;-83
2022/04/27 03:45:43;;;;;;;21.05;14.77;;;6.60;99.90;;;;;;5061427;28;20012;-83
2022/04/27 03:48:08;;;;;;;30.40;16.45;;;6.60;99.90;;;;;;5093086;28;20044;-83
2022/04/27 03:50:35;;;;;;;24.58;16.23;;;6.60;99.90;;;;;;5087243;28;20480;-83
2022/04/27 03:53:08;;;;;;;25.40;15.40;;;6.60;99.90;;;;;;5089638;28;20031;-83
2022/04/27 03:55:34;;;;;;;21.73;15.70;;;6.60;99.90;;;;;;5089595;28;20035;-83
2022/04/27 03:58:02;;;;;;;24.88;16.92;;;6.60;99.90;;;;;;5081446;28;20032;-83
2022/04/27 04:00:28;;;;;;;20.13;14.38;;;6.60;99.90;;;;;;5074767;28;20119;-83
2022/04/27 04:02:54;;;;;;;23.95;14.48;;;6.50;99.90;;;;;;5053878;28;20186;-83
2022/04/27 04:05:20;;;;;;;29.08;15.60;;;6.50;99.90;;;;;;5072746;28;20542;-83
2022/04/27 04:07:47;;;;;;;25.38;14.73;;;6.50;99.90;;;;;;5075820;28;20603;-83
2022/04/27 04:10:12;;;;;;;24.60;14.80;;;6.50;99.90;;;;;;5075124;28;20035;-83
2022/04/27 04:12:40;;;;;;;22.10;15.20;;;6.50;99.90;;;;;;5065364;28;20032;-83
2022/04/27 04:15:06;;;;;;;24.58;15.65;;;6.40;99.90;;;;;;5063954;28;20035;-83
2022/04/27 04:17:31;;;;;;;28.85;16.52;;;6.40;99.90;;;;;;5074422;28;20124;-83
2022/04/27 04:19:59;;;;;;;27.10;16.42;;;6.40;99.90;;;;;;5073376;28;20114;-83
2022/04/27 04:22:24;;;;;;;21.23;15.40;;;6.40;99.90;;;;;;5089023;28;20032;-83
2022/04/27 04:30:44;;;;;;;29.95;16.05;;;6.40;99.90;;;;;;5084690;28;20046;-83
2022/04/27 04:33:12;;;;;;;25.75;15.88;;;6.50;99.90;;;;;;5080678;28;20029;-83
2022/04/27 04:35:42;;;;;;;26.58;16.60;;;6.50;99.90;;;;;;5089501;28;20035;-83
2022/04/27 04:38:08;;;;;;;39.05;18.45;;;6.60;99.90;;;;;;5092526;28;20028;-83
2022/04/27 04:40:36;;;;;;;24.50;15.10;;;6.70;99.90;;;;;;5075258;28;20384;-83
2022/04/27 04:43:02;;;;;;;29.73;16.30;;;6.80;99.90;;;;;;5090883;28;20020;-82
2022/04/27 04:45:28;;;;;;;32.50;17.52;;;6.90;99.90;;;;;;5073511;28;20157;-82
2022/04/27 04:47:54;;;;;;;29.70;18.00;;;7.00;99.90;;;;;;5074108;28;20491;-82
2022/04/27 04:50:20;;;;;;;26.08;16.90;;;7.10;99.90;;;;;;5092032;28;20024;-83
2022/04/27 04:52:46;;;;;;;30.58;16.58;;;7.20;99.90;;;;;;5092524;28;20032;-83
2022/04/27 04:55:21;;;;;;;32.22;16.33;;;7.20;99.90;;;;;;5073790;28;20384;-83
2022/04/27 04:57:46;;;;;;;27.97;16.17;;;7.30;99.90;;;;;;5092711;28;20047;-83
2022/04/27 05:00:22;;;;;;;24.63;16.13;;;7.40;99.90;;;;;;5088225;28;20017;-83
2022/04/27 05:02:47;;;;;;;31.83;17.08;;;7.50;99.90;;;;;;5073163;28;20036;-82
2022/04/27 05:05:13;;;;;;;28.58;15.43;;;7.50;99.90;;;;;;5092163;28;20036;-83
2022/04/27 05:07:41;;;;;;;22.70;15.88;;;7.50;99.90;;;;;;5091065;28;20028;-83
2022/04/27 05:10:07;;;;;;;25.63;14.95;;;7.60;99.90;;;;;;5074283;28;20028;-83
2022/04/27 05:12:46;;;;;;;28.17;15.70;;;7.60;99.90;;;;;;5084207;28;20016;-83
2022/04/27 05:15:12;;;;;;;30.45;17.55;;;7.70;99.90;;;;;;5089735;28;20031;-83
2022/04/27 05:17:38;;;;;;;18.48;13.32;;;7.80;99.90;;;;;;5092202;28;20032;-83
2022/04/27 05:20:05;;;;;;;22.02;14.00;;;7.80;99.90;;;;;;5072614;28;20484;-83
2022/04/27 05:22:35;;;;;;;23.50;14.93;;;7.90;99.90;;;;;;5090891;28;20039;-83
2022/04/27 05:25:08;;;;;;;25.85;14.70;;;8.00;99.90;;;;;;5091849;28;20099;-83
2022/04/27 05:27:38;;;;;;;21.27;14.20;;;8.00;99.90;;;;;;5073435;28;20024;-83
2022/04/27 05:32:55;;;;;;;24.17;14.63;;;8.10;99.90;;;;;;5051965;28;20054;-82
2022/04/27 05:35:21;;;;;;;19.55;13.30;;;8.20;99.90;;;;;;5069198;28;20094;-83
2022/04/27 05:37:47;;;;;;;28.67;16.35;;;8.20;99.90;;;;;;5095954;28;20020;-82
2022/04/27 05:40:19;;;;;;;27.27;13.38;;;8.20;99.90;;;;;;5112227;28;20042;-82
2022/04/27 05:42:47;;;;;;;21.88;13.30;;;8.30;99.90;;;;;;5094098;28;20077;-82
2022/04/27 05:45:14;;;;;;;23.65;13.75;;;8.20;99.90;;;;;;5112529;28;20027;-82
2022/04/27 05:47:40;;;;;;;28.98;14.02;;;8.30;99.90;;;;;;5110223;28;20020;-82
2022/04/27 05:50:08;;;;;;;28.25;14.73;;;8.20;99.90;;;;;;5114360;28;20107;-81
2022/04/27 05:52:53;;;;;;;28.92;14.82;;;8.20;99.90;;;;;;5097027;28;20530;-82
2022/04/27 05:55:19;;;;;;;33.22;14.07;;;8.10;99.90;;;;;;5113703;28;20136;-81
2022/04/27 05:57:45;;;;;;;26.70;13.95;;;8.10;99.90;;;;;;5115275;28;20108;-81
2022/04/27 06:00:12;;;;;;;33.55;14.75;;;8.10;99.90;;;;;;5109122;28;20114;-81
2022/04/27 06:02:38;;;;;;;25.40;15.40;;;8.10;99.90;;;;;;5112690;27;20019;-81
2022/04/27 06:05:05;;;;;;;39.20;15.50;;;8.10;99.90;;;;;;5111169;28;20374;-81
2022/04/27 06:07:34;;;;;;;32.28;15.63;;;8.00;99.90;;;;;;5114450;28;20030;-82
2022/04/27 06:09:59;;;;;;;29.33;14.80;;;8.00;99.90;;;;;;5115523;28;20024;-81
2022/04/27 06:12:34;;;;;;;30.13;16.38;;;8.10;99.90;;;;;;5114933;28;20028;-82
2022/04/27 06:15:01;;;;;;;29.88;16.17;;;8.10;99.90;;;;;;5114022;28;20012;-82
2022/04/27 06:17:26;;;;;;;28.42;15.15;;;8.10;99.90;;;;;;5114902;28;20023;-82
2022/04/27 06:19:53;;;;;;;30.73;15.43;;;8.10;99.90;;;;;;5096971;28;20031;-82
2022/04/27 06:22:22;;;;;;;27.08;14.48;;;8.20;99.90;;;;;;5098671;28;20150;-81
2022/04/27 06:24:53;;;;;;;32.50;15.85;;;8.20;99.90;;;;;;5103630;28;20024;-82
2022/04/27 06:27:19;;;;;;;33.05;15.65;;;8.30;99.90;;;;;;5114138;28;20494;-81
2022/04/27 06:29:50;;;;;;;30.10;14.57;;;8.30;99.90;;;;;;5079341;28;20073;-81
2022/04/27 06:32:16;;;;;;;33.05;15.75;;;8.30;99.90;;;;;;5095131;28;20020;-81
2022/04/27 06:34:43;;;;;;;24.77;15.45;;;8.30;99.90;;;;;;5098485;28;20487;-81
2022/04/27 06:37:08;;;;;;;27.75;16.60;;;8.40;99.90;;;;;;5114955;28;20020;-81
2022/04/27 06:39:34;;;;;;;24.27;15.65;;;8.50;99.90;;;;;;5112406;28;20016;-81
2022/04/27 06:42:00;;;;;;;29.17;16.13;;;8.50;99.90;;;;;;5105805;28;20023;-81
2022/04/27 06:44:25;;;;;;;28.50;17.25;;;8.50;99.90;;;;;;5105132;27;20383;-81
2022/04/27 06:46:51;;;;;;;33.35;16.27;;;8.50;99.90;;;;;;5108107;28;20034;-82
2022/04/27 06:49:23;;;;;;;34.28;17.38;;;8.60;99.90;;;;;;5110690;28;20102;-81
2022/04/27 06:51:48;;;;;;;25.23;15.95;;;8.50;99.90;;;;;;5102750;28;20056;-82
2022/04/27 06:54:16;;;;;;;33.95;16.52;;;8.60;99.90;;;;;;5114108;28;20020;-82
2022/04/27 06:56:42;;;;;;;25.98;15.05;;;8.60;99.90;;;;;;5092176;28;20019;-82
2022/04/27 06:59:07;;;;;;;29.17;15.60;;;8.70;99.90;;;;;;5112496;28;20032;-82
2022/04/27 07:01:33;;;;;;;30.25;16.45;;;8.70;99.90;;;;;;5104422;28;20043;-81
2022/04/27 07:04:06;;;;;;;33.95;16.75;;;8.80;99.90;;;;;;5106677;27;20036;-82
2022/04/27 07:06:33;;;;;;;31.67;14.93;;;8.80;99.90;;;;;;5088254;28;20290;-82
2022/04/27 07:09:07;;;;;;;28.80;15.88;;;8.90;99.90;;;;;;5073327;28;20036;-82
2022/04/27 07:11:33;;;;;;;29.75;16.60;;;8.90;99.90;;;;;;5078721;28;20476;-82
2022/04/27 07:13:59;;;;;;;22.25;13.98;;;9.00;99.90;;;;;;5086447;28;20097;-82
2022/04/27 07:16:24;;;;;;;23.83;13.75;;;9.00;99.90;;;;;;5087725;28;20032;-82
2022/04/27 07:18:50;;;;;;;28.80;15.77;;;9.00;99.90;;;;;;5088298;28;20389;-82
2022/04/27 07:21:16;;;;;;;32.00;14.23;;;9.20;99.90;;;;;;5088944;28;20499;-82
2022/04/27 07:23:47;;;;;;;21.70;13.68;;;9.20;99.90;;;;;;5065881;28;20111;-83
2022/04/27 07:26:13;;;;;;;29.98;13.73;;;9.30;99.90;;;;;;5092153;28;20074;-82
2022/04/27 07:28:41;;;;;;;22.33;13.65;;;9.30;99.90;;;;;;5074585;28;20414;-82
2022/04/27 07:31:07;;;;;;;24.85;12.23;;;9.40;99.90;;;;;;5087245;28;20031;-82
2022/04/27 07:33:35;;;;;;;20.65;13.13;;;9.50;99.90;;;;;;5090016;28;20027;-82
2022/04/27 07:36:01;;;;;;;21.13;12.30;;;9.50;99.90;;;;;;5063250;28;20074;-82
2022/04/27 07:38:29;;;;;;;20.95;12.27;;;9.60;99.90;;;;;;5067828;28;20020;-82
2022/04/27 07:40:55;;;;;;;24.40;12.48;;;9.70;99.90;;;;;;5082737;28;20025;-83
2022/04/27 07:43:21;;;;;;;30.27;13.77;;;9.70;99.90;;;;;;5090194;28;20111;-82
2022/04/27 07:45:47;;;;;;;18.42;12.48;;;9.70;99.90;;;;;;5065323;28;20028;-81
2022/04/27 07:48:13;;;;;;;21.05;11.07;;;9.70;99.90;;;;;;5083799;28;20028;-82
2022/04/27 07:50:40;;;;;;;22.17;12.10;;;9.80;99.90;;;;;;5093150;28;20033;-81
2022/04/27 07:53:06;;;;;;;20.38;12.57;;;9.80;99.90;;;;;;5091639;28;20028;-81
2022/04/27 07:55:31;;;;;;;15.88;11.20;;;9.80;99.90;;;;;;5092004;28;20072;-81
2022/04/27 07:57:57;;;;;;;20.02;11.82;;;9.80;99.90;;;;;;5075088;28;20520;-81
2022/04/27 08:00:22;;;;;;;20.10;11.55;;;10.00;99.90;;;;;;5073551;28;20056;-81
2022/04/27 08:02:49;;;;;;;23.05;12.25;;;10.00;99.90;;;;;;5083018;28;20024;-81
2022/04/27 08:05:15;;;;;;;21.85;13.57;;;10.10;99.90;;;;;;5090763;28;20401;-81
2022/04/27 08:07:49;;;;;;;16.83;11.27;;;10.10;99.90;;;;;;5089624;28;20027;-81
2022/04/27 08:10:19;;;;;;;24.42;11.77;;;10.20;99.90;;;;;;5075543;28;20495;-81
2022/04/27 08:12:48;;;;;;;18.23;10.50;;;10.30;99.90;;;;;;5083923;28;20103;-82
2022/04/27 08:15:15;;;;;;;20.13;10.75;;;10.30;99.90;;;;;;5078302;28;20034;-81
2022/04/27 08:18:09;;;;;;;22.20;10.73;;;10.30;99.90;;;;;;5089855;28;20031;-81
2022/04/27 08:23:22;;;;;;;24.20;11.95;;;10.50;99.90;;;;;;5085834;28;20541;-81
2022/04/27 08:25:48;;;;;;;15.60;10.20;;;10.50;99.90;;;;;;5090915;28;20024;-81
2022/04/27 08:28:16;;;;;;;19.52;10.85;;;10.60;99.90;;;;;;5063050;28;20032;-81
2022/04/27 08:30:43;;;;;;;20.42;11.07;;;10.70;99.90;;;;;;5090656;28;20028;-81
2022/04/27 08:33:11;;;;;;;20.70;11.10;;;10.80;99.90;;;;;;5088972;28;20028;-81
2022/04/27 08:35:37;;;;;;;24.27;10.93;;;10.80;99.90;;;;;;5078526;28;20027;-81
2022/04/27 08:38:07;;;;;;;16.08;10.02;;;10.80;99.90;;;;;;5063056;28;20032;-82
2022/04/27 08:40:36;;;;;;;20.65;9.48;;;10.90;99.90;;;;;;5080881;28;20373;-82
2022/04/27 08:43:09;;;;;;;27.48;11.30;;;10.90;99.90;;;;;;5089321;28;20080;-84
2022/04/27 08:45:36;;;;;;;23.13;10.43;;;11.00;99.90;;;;;;5087888;28;20020;-84
2022/04/27 08:48:04;;;;;;;18.88;10.63;;;11.00;99.90;;;;;;5092045;28;20016;-84
2022/04/27 08:50:30;;;;;;;17.35;10.02;;;11.10;99.90;;;;;;5065159;28;20036;-84
2022/04/27 08:52:56;;;;;;;14.80;9.65;;;11.10;99.90;;;;;;5088828;28;20038;-84
2022/04/27 08:55:23;;;;;;;18.13;10.13;;;11.10;99.90;;;;;;5079983;28;20024;-84
2022/04/27 08:57:53;;;;;;;20.58;11.35;;;11.20;99.90;;;;;;5090381;28;20487;-84
2022/04/27 09:00:20;;;;;;;15.98;10.45;;;11.30;99.90;;;;;;5076219;28;20117;-84
2022/04/27 09:02:53;;;;;;;21.92;10.15;;;11.40;99.90;;;;;;5069768;28;20043;-84
2022/04/27 09:05:34;;;;;;;15.00;9.00;;;11.40;99.90;;;;;;5082162;28;20035;-84
2022/04/27 09:07:59;;;;;;;13.63;8.88;;;11.40;99.90;;;;;;5071952;28;20024;-84
2022/04/27 09:10:25;;;;;;;13.00;8.43;;;11.50;99.90;;;;;;5071917;28;20027;-84
2022/04/27 09:12:56;;;;;;;22.83;9.75;;;11.50;99.90;;;;;;5056998;28;20841;-84
2022/04/27 09:15:23;;;;;;;21.85;9.48;;;11.60;99.90;;;;;;5071077;28;20078;-84
2022/04/27 09:23:22;;;;;;;22.55;11.00;;;11.70;99.90;;;;;;5069777;28;20218;-84
2022/04/27 09:26:19;;;;;;;17.15;10.57;;;11.90;99.90;;;;;;5075847;28;20016;-84
2022/04/27 09:28:53;;;;;;;;;;;11.90;99.90;;;;;;5076199;28;20051;-84
2022/04/27 09:31:28;;;;;;;22.58;10.68;;;12.00;99.90;;;;;;5073802;28;19905;-84
2022/04/27 09:34:33;;;;;;;21.65;8.95;;;12.10;99.90;;;;;;5069698;28;20017;-84
2022/04/27 09:37:03;;;;;;;18.08;9.02;;;12.20;99.90;;;;;;5073685;28;20076;-84
2022/04/27 09:39:29;;;;;;;16.00;8.05;;;12.20;99.90;;;;;;5093483;28;20016;-87
2022/04/27 09:42:05;;;;;;;13.27;7.82;;;12.30;99.90;;;;;;5086224;28;20108;-86
2022/04/27 09:44:33;;;;;;;19.27;8.55;;;12.30;99.90;;;;;;5068723;28;20029;-87
2022/04/27 09:47:07;;;;;;;12.57;7.47;;;12.30;99.90;;;;;;5073022;28;20104;-86
2022/04/27 09:49:36;;;;;;;24.27;10.13;;;12.30;99.90;;;;;;5074645;28;20433;-86
2022/04/27 09:52:14;;;;;;;17.63;9.30;;;12.40;99.90;;;;;;5075300;28;20088;-87
2022/04/27 09:54:42;;;;;;;11.98;7.88;;;12.40;99.90;;;;;;5075333;28;20020;-87
2022/04/27 09:57:15;;;;;;;14.98;8.32;;;12.50;99.90;;;;;;5075294;28;20073;-87
2022/04/27 09:59:41;;;;;;;19.23;8.00;;;12.50;99.90;;;;;;5075348;28;20099;-87
2022/04/27 10:02:30;;;;;;;14.25;8.18;;;12.60;99.90;;;;;;5056997;28;20096;-87
2022/04/27 10:05:28;;;;;;;26.40;9.55;;;12.70;99.90;;;;;;5054064;28;20040;-87
2022/04/27 10:07:55;;;;;;;13.32;8.90;;;12.70;99.90;;;;;;5063960;28;20032;-87
2022/04/27 10:10:21;;;;;;;12.52;8.63;;;12.70;99.90;;;;;;5068745;28;20031;-86
2022/04/27 10:12:58;;;;;;;11.95;6.93;;;12.80;99.90;;;;;;5075750;28;20031;-85
2022/04/27 10:15:24;;;;;;;18.05;7.75;;;12.90;99.90;;;;;;5074323;28;20029;-85
2022/04/27 10:18:00;;;;;;;14.60;8.25;;;13.00;99.90;;;;;;5068281;28;20074;-86
2022/04/27 10:20:27;;;;;;;12.90;7.97;;;13.00;99.90;;;;;;5063349;28;20485;-86
2022/04/27 10:23:22;;;;;;;10.60;7.63;;;13.10;99.90;;;;;;5073987;28;20078;-86
2022/04/27 10:26:07;;;;;;;13.88;6.70;;;13.00;99.90;;;;;;5068501;28;20024;-86
2022/04/27 10:28:50;;;;;;;14.68;8.50;;;13.10;99.90;;;;;;5074740;28;20028;-87
2022/04/27 10:31:40;;;;;;;12.15;8.38;;;13.20;99.90;;;;;;5074052;28;20036;-86
2022/04/27 10:34:25;;;;;;;10.40;7.10;;;13.30;99.90;;;;;;5057695;28;20029;-87
2022/04/27 10:36:53;;;;;;;16.75;9.93;;;13.40;99.90;;;;;;5074623;28;20028;-86
2022/04/27 10:39:25;;;;;;;13.32;8.07;;;13.50;99.90;;;;;;5072976;28;20037;-87
2022/04/27 10:42:06;;;;;;;16.00;8.52;;;13.50;99.90;;;;;;5066508;28;20036;-88
2022/04/27 10:45:07;;;;;;;16.90;8.70;;;13.50;99.90;;;;;;5056094;28;20025;-87
2022/04/27 10:47:36;;;;;;;14.77;8.35;;;13.60;99.90;;;;;;5074018;28;20024;-87
2022/04/27 10:50:13;;;;;;;28.02;10.80;;;13.60;99.90;;;;;;5040177;28;20121;-87
2022/04/27 10:52:51;;;;;;;12.90;8.65;;;13.70;99.90;;;;;;5074293;28;20146;-87
2022/04/27 10:56:05;;;;;;;15.95;8.63;;;13.70;99.90;;;;;;5056580;28;20036;-87
2022/04/27 10:58:43;;;;;;;12.65;8.88;;;13.80;99.90;;;;;;5042139;28;20036;-85
2022/04/27 11:01:11;;;;;;;17.17;9.25;;;13.80;99.90;;;;;;5082273;28;20429;-87
2022/04/27 11:03:39;;;;;;;12.20;9.35;;;13.80;99.90;;;;;;5074534;28;20021;-86
2022/04/27 11:06:12;;;;;;;14.63;9.30;;;13.80;99.90;;;;;;5053968;28;20444;-86
2022/04/27 11:09:26;;;;;;;;;;;;;;;;;;;;;
2022/04/27 11:12:01;;;;;;;13.65;8.52;;;13.90;99.90;;;;;;5058146;28;20032;-85
2022/04/27 11:14:34;;;;;;;15.77;9.55;;;14.00;99.90;;;;;;5054909;28;20056;-87
2022/04/27 11:17:00;;;;;;;14.50;8.73;;;14.10;99.90;;;;;;5073314;28;20438;-86
2022/04/27 11:19:43;;;;;;;15.27;8.70;;;14.20;99.90;;;;;;5073861;28;20025;-86
2022/04/27 11:22:12;;;;;;;26.13;10.25;;;14.30;99.90;;;;;;5040094;28;20040;-86
2022/04/27 11:24:38;;;;;;;18.17;10.20;;;14.30;99.90;;;;;;5073234;28;20433;-86
2022/04/27 11:27:03;;;;;;;11.18;8.88;;;14.40;99.90;;;;;;5055630;28;20122;-86
2022/04/27 11:30:12;;;;;;;17.23;8.23;;;14.40;99.90;;;;;;5038902;28;20418;-86
2022/04/27 11:32:44;;;;;;;14.02;8.23;;;14.30;99.90;;;;;;5053377;28;20021;-85
2022/04/27 11:35:23;;;;;;;17.55;9.25;;;14.40;99.90;;;;;;5068135;28;20376;-86
2022/04/27 11:37:53;;;;;;;22.85;10.48;;;14.50;99.90;;;;;;5051770;28;20428;-85
2022/04/27 11:40:28;;;;;;;14.27;9.77;;;14.70;99.90;;;;;;5055157;28;20025;-85
2022/04/27 11:43:00;;;;;;;12.05;8.20;;;14.80;99.90;;;;;;5072475;28;20108;-85
2022/04/27 11:45:28;;;;;;;12.20;9.32;;;14.80;99.90;;;;;;5061354;28;20392;-85
2022/04/27 11:48:03;;;;;;;19.17;10.18;;;14.80;99.90;;;;;;5054906;28;20115;-85
2022/04/27 11:50:33;;;;;;;14.40;9.23;;;14.90;99.90;;;;;;5049705;28;20079;-85
2022/04/27 11:53:07;;;;;;;16.95;8.93;;;15.00;99.90;;;;;;5054852;28;20025;-85
2022/04/27 11:55:55;;;;;;;21.50;9.52;;;15.00;99.90;;;;;;5093417;28;20031;-85
2022/04/27 11:58:38;;;;;;;18.58;8.88;;;15.00;99.90;;;;;;5075369;28;20046;-85
2022/04/27 12:01:04;;;;;;;19.80;9.43;;;15.00;99.90;;;;;;5058047;28;20082;-85
2022/04/27 12:03:43;;;;;;;15.15;8.57;;;15.00;99.90;;;;;;5072430;28;20473;-85
2022/04/27 12:06:09;;;;;;;12.93;7.28;;;14.80;99.90;;;;;;5093061;28;20131;-85
2022/04/27 12:08:41;;;;;;;15.20;7.90;;;14.80;99.90;;;;;;5075099;28;20107;-85
2022/04/27 12:11:32;;;;;;;25.42;10.07;;;14.70;99.90;;;;;;5093127;28;20034;-85
2022/04/27 12:13:58;;;;;;;25.38;10.75;;;14.60;99.90;;;;;;5092431;28;20044;-85
2022/04/27 12:17:19;;;;;;;11.98;8.60;;;14.60;99.90;;;;;;5070660;28;20379;-87
2022/04/27 12:20:34;;;;;;;13.15;8.70;;;14.60;99.90;;;;;;5009700;28;20042;-86
2022/04/27 12:26:20;;;;;;;13.80;8.40;;;14.60;99.90;;;;;;5080191;28;20023;-88
2022/04/27 12:28:51;;;;;;;11.23;7.40;;;14.70;99.90;;;;;;5073342;28;20099;-86
2022/04/27 12:31:20;;;;;;;11.95;7.93;;;14.70;99.90;;;;;;5090098;28;20602;-86
2022/04/27 12:33:51;;;;;;;13.75;7.57;;;14.70;99.90;;;;;;5074222;28;20024;-85
2022/04/27 12:39:25;;;;;;;12.93;7.55;;;14.90;99.90;;;;;;5072971;28;20070;-86
2022/04/27 12:42:06;;;;;;;15.43;8.65;;;15.00;99.90;;;;;;5072579;28;20396;-86
2022/04/27 12:44:59;;;;;;;17.58;8.13;;;15.10;99.90;;;;;;5072550;28;20074;-86
2022/04/27 12:47:25;;;;;;;14.70;8.68;;;15.40;99.90;;;;;;5072209;28;20020;-85
2022/04/27 12:50:04;;;;;;;16.50;8.98;;;15.50;99.90;;;;;;5072581;28;20100;-85
2022/04/27 12:52:30;;;;;;;14.82;8.48;;;15.60;99.90;;;;;;5072734;28;20369;-85
2022/04/27 12:55:13;;;;;;;13.57;8.85;;;15.60;99.90;;;;;;5054464;28;20021;-86
2022/04/27 12:57:50;;;;;;;16.08;8.52;;;15.90;99.90;;;;;;5058035;28;20024;-85
2022/04/27 13:00:18;;;;;;;10.98;7.70;;;16.10;99.90;;;;;;5068431;28;20032;-86
2022/04/27 13:02:44;;;;;;;20.45;8.82;;;16.20;99.90;;;;;;5094265;28;20103;-86
2022/04/27 13:05:09;;;;;;;14.43;7.82;;;16.10;99.90;;;;;;5096477;28;20117;-85
2022/04/27 13:07:56;;;;;;;17.42;8.10;;;16.00;99.90;;;;;;5096531;28;20021;-88
2022/04/27 13:13:11;;;;;;;12.05;6.43;;;15.80;99.90;;;;;;5096688;28;20050;-90
2022/04/27 13:15:36;;;;;;;11.95;6.88;;;15.70;99.90;;;;;;5111531;28;20024;-90
2022/04/27 13:18:08;;;;;;;19.63;8.48;;;15.60;99.90;;;;;;5077611;28;20028;-89
2022/04/27 13:20:34;;;;;;;11.50;6.90;;;15.60;99.90;;;;;;5077965;28;20028;-89
2022/04/27 13:23:31;;;;;;;10.98;6.90;;;15.50;99.90;;;;;;5087880;28;20035;-89
2022/04/27 13:25:56;;;;;;;11.25;7.10;;;15.40;99.90;;;;;;5096376;28;20026;-90
2022/04/27 13:28:40;;;;;;;10.88;6.70;;;15.30;99.90;;;;;;5096263;28;20116;-89
2022/04/27 13:31:08;;;;;;;18.83;6.57;;;15.30;99.90;;;;;;5077588;28;20031;-89